To NAV CANADA Home Page Login to a new session Search on AWWS site Disclaimer Vers la page française équivalente Tips FAQ What's new on the site To the Forecasts and Observations / NOTAM section To "File a Flight Plan" website Publications and other links Update of the User's profile FIC Telephone Numbers My Weather Data Folder Route Weather Data Regional Weather Data Local Weather Data To the Forecasts and Observations / NOTAM section
Request Generated 03/19/2019 at 23:06:08 UTC . Weather information available at that time is displayed.

METAR/TAF

BAKER LAKE/NU    

METAR CYBK 192300Z 08006KT 20SM FEW230 M22/M25 A3013 RMK CI2 SLP206=
METAR CYBK 192200Z 07004KT 20SM FEW230 M20/M24 A3014 RMK CI1 SLP209=
METAR CYBK 192100Z 07003KT 20SM SCT230 M19/M24 A3013 RMK CI4 SLP207=

TAF CYBK 191742Z 1918/2006 06009KT P6SM SCT230
BECMG 1922/1924 VRB03KT
FM200400 13008KT P6SM SCT070 BKN150
RMK NXT FCST BY 200000Z=
Your time UTC time
Weather data provided by Environment Canada and NAV CANADA